Aérodrome :
LOGIN :

S'inscrire | Disclaimer

   EN    FR    IT 

 










Légende :    VFR   VFR Marginal   IFR   IFR Intensif   IFR Très Intensif
Visi : 
Plafond : 
>= 8 km
>= 3000ft
5 à 8 km
1000 à 3000 ft
1500m à 5 km
500 à 1000 ft
800 à 1500m
200 à 500 ft
< 800m
< 200 ft
Symboles :   Orages  Brouillard  Fortes neiges  Fortes précipitations  Vent > 20 kt
SIGMETs :   Divers  Orages  Givrage  Turbulence  Onde Orograph.  Cendres Volcan.






- Altitude de l'aérodrome : 137 ft


LIPS - Istrana AFB Treviso

DERNIER METAR :
  • 230055Z 00000KT CAVOK 23/21 Q1014

METARs EXPIRÉS :
  • 222355Z 30004KT 9999 SCT100 21/19 Q1014 RMK SCT VIS MIN 9999 WIND THR26 30004KT WIND THR08 28005KT BLU
  • 222255Z 12002KT 9999 SCT100 21/17 Q1015 RMK SCT VIS MIN 9999 WIND THR26 08003KT WIND THR08 08004KT BLU
  • 222155Z 10003KT 9999 FEW030TCU BKN100 23/20 Q1015 RMK OVC VIS MIN 9999 WIND THR26 15003KT WIND THR08 17003KT BLU
  • 222055Z 06003KT 9999 BKN100 23/19 Q1014 RMK BKN VIS MIN 9999 WIND THR26 02003KT WIND THR08 05004KT BLU

TAF TAF LIPS
Valide du 23 à 00h jusqu'au 23 à 09h UTC


222300Z 2300/2309 04005KT 9999 SCT100



MET'MAP, la Météo Aéronautique d'un coup d'oeil ! - Copyright ORBIFLY Décembre 2007 - Disclaimer

ORBIFLY MET'MAP TEAM :

Programmation & Développement : Alexandra Zaïnal
Sur une idée originale de : Baudouin d'Aumeries
Soutien technique & logistique : Manuel Goepfert
Assistance : Marc-Olivier Méhu




SOURCES & CREDITS :

   NOAA